Ireton, Iowa
Current Conditions -  °F | °C
As of 2:55 PM on Thursday 20 Nov 2014 (Local Time) from KORC Reporting Station
Clear Clear  
Wind Chill: 13°   Ceiling: Unl
Heat Index: 23°   Visibility: 10mi
Dew Point: 12°   Wind: 9mph
Humidity: 63%   Direction: 310°NW
Pressure: 30.17"   Gusts: NA
Location:  42.97°N, 96.32°W
Report Text: KORC 202055Z AUTO 31008KT 10SM CLR M05/M11 A3017 RMK AO2
Loading
Personal Weather Stations






























Interactive Weather Map New forecast layout! Learn more

10-Day Weather Forecast

Advertisements
Track Severe Weather on mobile